Time;durP1;ratioP1;P1;durP2;ratioP2;P2;SDS_P1;SDS_P2;PMS_P1;PMS_P2;Temp;Humidity;BMP_temperature;BMP_pressure;BME280_temperature;BME280_humidity;BME280_pressure;Samples;Min_cycle;Max_cycle;Signal;HPM_P1;HPM_P2
2021/12/02 00:00:48;;;;;;;10.75;2.80;;;;;;;12.64;41.80;101261.84;5017529;28;20063;-75
2021/12/02 00:03:13;;;;;;;8.30;2.70;;;;;;;12.36;42.64;101268.59;5035213;28;20430;-75
2021/12/02 00:05:39;;;;;;;7.28;2.83;;;;;;;12.57;42.05;101257.94;5017429;28;20567;-76
2021/12/02 00:08:05;;;;;;;9.60;3.95;;;;;;;12.50;42.14;101244.66;5035270;28;20092;-75
2021/12/02 00:10:31;;;;;;;8.73;2.45;;;;;;;12.47;42.38;101248.84;5017222;28;20120;-75
2021/12/02 00:12:58;;;;;;;7.25;2.33;;;;;;;12.43;42.15;101249.78;5035078;28;20022;-76
2021/12/02 00:15:32;;;;;;;12.88;3.20;;;;;;;12.38;42.49;101253.44;5035028;28;20030;-75
2021/12/02 00:21:03;;;;;;;8.25;2.70;;;;;;;12.38;42.41;101260.88;5033981;28;20033;-75
2021/12/02 00:23:34;;;;;;;9.45;2.30;;;;;;;12.41;42.41;101269.28;5017083;28;20395;-75
2021/12/02 00:26:15;;;;;;;8.02;2.72;;;;;;;12.38;42.38;101267.16;5034886;28;20030;-75
2021/12/02 00:28:42;;;;;;;11.93;3.05;;;;;;;12.46;42.21;101276.56;5016011;28;20088;-75
2021/12/02 00:31:29;;;;;;;7.53;2.85;;;;;;;12.39;42.36;101271.53;5034335;28;20076;-75
2021/12/02 00:33:57;;;;;;;8.57;2.33;;;;;;;12.44;42.39;101290.56;5034658;28;20064;-75
2021/12/02 00:36:25;;;;;;;8.25;2.75;;;;;;;12.47;42.40;101278.19;5034690;28;20468;-75
2021/12/02 00:38:51;;;;;;;12.10;3.47;;;;;;;12.44;42.39;101284.28;5016058;28;20028;-75
2021/12/02 00:41:21;;;;;;;12.57;2.80;;;;;;;12.39;42.59;101285.25;5034527;28;20083;-74
2021/12/02 00:43:49;;;;;;;8.05;2.65;;;;;;;12.53;42.27;101282.41;5033978;28;20053;-74
2021/12/02 00:46:18;;;;;;;9.40;4.25;;;;;;;12.42;42.49;101283.78;5034384;28;20030;-74
2021/12/02 00:48:45;;;;;;;14.02;2.90;;;;;;;12.46;42.52;101287.50;5034416;28;20120;-74
2021/12/02 00:51:11;;;;;;;9.77;2.38;;;;;;;12.55;42.33;101280.19;5016463;28;20040;-78
2021/12/02 00:53:43;;;;;;;4.10;2.40;;;;;;;12.57;42.15;101280.66;5016516;28;20034;-74
2021/12/02 00:56:11;;;;;;;8.35;2.92;;;;;;;12.56;42.15;101281.78;5016523;28;20515;-74
2021/12/02 00:58:37;;;;;;;5.80;2.45;;;;;;;12.58;41.95;101276.81;5034198;28;20068;-74
2021/12/02 01:01:05;;;;;;;5.93;2.00;;;;;;;12.58;42.30;101285.03;5034126;28;20036;-75
2021/12/02 01:03:34;;;;;;;15.23;3.40;;;;;;;12.57;42.22;101293.56;5034111;28;20025;-74
2021/12/02 01:06:01;;;;;;;11.93;2.60;;;;;;;12.61;42.27;101278.91;5034047;28;20163;-75
2021/12/02 01:08:27;;;;;;;12.95;2.95;;;;;;;12.58;42.29;101281.47;5034027;28;20029;-76
2021/12/02 01:10:54;;;;;;;9.38;2.63;;;;;;;12.63;42.25;101284.09;5033854;28;20026;-75
2021/12/02 01:13:20;;;;;;;9.77;2.63;;;;;;;12.63;42.13;101281.34;5033937;28;20029;-75
2021/12/02 01:15:46;;;;;;;11.27;3.00;;;;;;;12.65;42.29;101276.38;5033954;28;20025;-75
2021/12/02 01:18:12;;;;;;;8.45;2.47;;;;;;;12.61;42.38;101278.91;5016120;28;20160;-75
2021/12/02 01:20:39;;;;;;;9.93;2.38;;;;;;;12.68;42.13;101264.75;5015972;28;20041;-75
2021/12/02 01:23:07;;;;;;;9.80;2.42;;;;;;;12.63;42.27;101262.97;5033741;28;20024;-75
2021/12/02 01:25:33;;;;;;;6.88;2.50;;;;;;;12.54;42.28;101262.09;5033674;28;20037;-79
2021/12/02 01:27:59;;;;;;;6.25;2.40;;;;;;;12.66;42.02;101262.34;5015933;28;20021;-75
2021/12/02 01:30:27;;;;;;;5.22;2.45;;;;;;;12.65;42.12;101257.97;5033502;28;20120;-75
2021/12/02 01:33:00;;;;;;;11.07;2.97;;;;;;;12.69;42.03;101277.34;5015842;28;20021;-75
2021/12/02 01:35:27;;;;;;;5.97;2.67;;;;;;;12.63;42.07;101284.91;5033523;28;20014;-75
2021/12/02 01:37:53;;;;;;;9.35;2.40;;;;;;;12.58;42.07;101293.25;5033501;28;20099;-75
2021/12/02 01:40:19;;;;;;;10.68;2.83;;;;;;;12.47;42.43;101300.13;5015285;28;20079;-75
2021/12/02 01:42:46;;;;;;;9.40;2.00;;;;;;;12.59;42.24;101288.56;5015388;28;20450;-75
2021/12/02 01:45:15;;;;;;;8.07;2.53;;;;;;;12.49;42.33;101297.88;5015693;28;20468;-75
2021/12/02 01:47:48;;;;;;;10.20;2.50;;;;;;;12.44;42.57;101300.72;5015541;28;20029;-75
2021/12/02 01:50:20;;;;;;;7.88;2.08;;;;;;;12.32;42.75;101297.72;5033295;28;20299;-79
2021/12/02 01:52:49;;;;;;;10.60;2.42;;;;;;;12.41;42.44;101290.41;5033202;28;20033;-75
2021/12/02 01:55:16;;;;;;;8.87;2.50;;;;;;;12.48;42.42;101304.47;5033168;28;20034;-75
2021/12/02 01:57:58;;;;;;;8.23;3.33;;;;;;;12.36;42.61;101316.00;5033089;28;20033;-76
2021/12/02 02:00:27;;;;;;;4.97;1.80;;;;;;;12.47;42.61;101317.38;5033114;28;20096;-75
2021/12/02 02:02:53;;;;;;;8.38;3.28;;;;;;;12.45;42.65;101311.38;5033073;28;20476;-75
2021/12/02 02:05:19;;;;;;;12.00;3.70;;;;;;;12.51;42.54;101314.81;5033023;28;20033;-75
2021/12/02 02:07:57;;;;;;;6.50;1.98;;;;;;;12.42;42.67;101312.00;5032941;28;20036;-75
2021/12/02 02:10:25;;;;;;;8.75;2.60;;;;;;;12.52;42.57;101302.72;5032912;28;20048;-75
2021/12/02 02:12:51;;;;;;;5.53;2.25;;;;;;;12.52;42.44;101304.66;5032879;28;20132;-75
2021/12/02 02:15:17;;;;;;;7.20;2.65;;;;;;;12.49;42.57;101303.34;5032905;28;20480;-75
2021/12/02 02:17:55;;;;;;;7.57;2.63;;;;;;;12.52;42.54;101302.72;5032846;28;20032;-75
2021/12/02 02:20:35;;;;;;;6.63;2.05;;;;;;;12.47;42.72;101322.84;5032768;28;20025;-75
2021/12/02 02:23:01;;;;;;;7.55;2.30;;;;;;;12.50;42.56;101313.19;5032727;28;20022;-75
2021/12/02 02:25:27;;;;;;;6.20;2.03;;;;;;;12.52;42.56;101313.69;5032686;28;20030;-75
2021/12/02 02:27:52;;;;;;;6.93;1.85;;;;;;;12.49;42.67;101319.81;5032597;28;20037;-75
2021/12/02 02:30:18;;;;;;;7.03;2.05;;;;;;;12.46;42.93;101323.16;5032668;28;20361;-76
2021/12/02 02:32:43;;;;;;;8.93;2.05;;;;;;;12.45;42.82;101316.03;5032419;28;20040;-76
2021/12/02 02:35:09;;;;;;;10.73;2.25;;;;;;;12.47;42.87;101322.84;5032506;28;20095;-75
2021/12/02 02:37:36;;;;;;;8.40;2.47;;;;;;;12.47;43.04;101320.13;5032516;28;20100;-75
2021/12/02 02:40:06;;;;;;;4.38;2.00;;;;;;;12.50;43.17;101324.16;5032571;28;20025;-75
2021/12/02 02:42:32;;;;;;;6.45;1.70;;;;;;;12.53;42.86;101323.53;5032519;28;20041;-75
2021/12/02 02:44:59;;;;;;;5.43;1.73;;;;;;;12.56;42.93;101336.63;5032361;28;20120;-75
2021/12/02 02:47:26;;;;;;;7.70;1.60;;;;;;;12.57;43.12;101340.97;5032104;28;20036;-75
2021/12/02 02:49:53;;;;;;;4.65;1.52;;;;;;;12.57;43.00;101349.19;5032485;28;20032;-75
2021/12/02 02:52:18;;;;;;;5.45;2.08;;;;;;;12.54;43.05;101366.25;5033022;28;20084;-75
2021/12/02 02:54:44;;;;;;;4.47;1.65;;;;;;;12.44;43.52;101367.31;5018818;28;20034;-75
2021/12/02 02:57:13;;;;;;;4.80;1.55;;;;;;;12.55;43.22;101376.13;5036486;28;20026;-75
2021/12/02 03:07:37;;;;;;;6.65;1.70;;;;;;;12.57;43.15;101376.63;5036351;28;20083;-75
2021/12/02 03:17:30;;;;;;;5.05;1.50;;;;;;;12.53;43.67;101377.53;5036198;28;20030;-75
2021/12/02 03:19:55;;;;;;;5.30;1.70;;;;;;;12.61;43.48;101374.84;5036099;28;20034;-75
2021/12/02 03:22:21;;;;;;;7.82;1.98;;;;;;;12.60;43.48;101386.13;5035949;28;20486;-75
2021/12/02 03:24:47;;;;;;;9.45;1.75;;;;;;;12.65;43.47;101384.09;5036042;28;20113;-76
2021/12/02 03:27:13;;;;;;;5.65;2.05;;;;;;;12.69;43.27;101393.31;5035923;28;20065;-79
2021/12/02 03:29:39;;;;;;;5.95;1.83;;;;;;;12.67;43.29;101392.00;5035869;28;20021;-75
2021/12/02 03:32:05;;;;;;;8.70;2.75;;;;;;;12.65;43.52;101400.53;5035842;28;20033;-75
2021/12/02 03:34:31;;;;;;;14.27;2.83;;;;;;;12.63;43.69;101402.78;5035821;28;20022;-75
2021/12/02 03:36:57;;;;;;;7.43;2.03;;;;;;;12.68;43.51;101405.41;5035727;28;20021;-75
2021/12/02 03:39:23;;;;;;;4.38;2.13;;;;;;;12.70;43.39;101408.66;5035755;28;20025;-76
2021/12/02 03:41:48;;;;;;;13.05;2.55;;;;;;;12.70;43.63;101425.13;5035681;28;20032;-75
2021/12/02 03:44:14;;;;;;;4.18;2.08;;;;;;;12.65;43.67;101421.66;5035388;28;20042;-75
2021/12/02 03:46:41;;;;;;;11.05;2.20;;;;;;;12.73;43.53;101421.72;5035571;28;20053;-75
2021/12/02 03:49:06;;;;;;;12.25;2.58;;;;;;;12.63;43.87;101424.72;5035535;28;20025;-75
2021/12/02 03:51:32;;;;;;;6.47;2.00;;;;;;;12.72;43.50;101427.53;5035371;28;20532;-75
2021/12/02 03:53:58;;;;;;;4.75;2.33;;;;;;;12.75;43.51;101433.19;5035511;28;20029;-76
2021/12/02 03:56:24;;;;;;;7.60;2.22;;;;;;;12.76;43.43;101425.78;5035416;28;20025;-75
2021/12/02 03:58:51;;;;;;;6.53;2.17;;;;;;;12.87;43.63;101423.63;5035380;28;20578;-75
2021/12/02 04:01:17;;;;;;;6.75;2.25;;;;;;;12.77;43.46;101416.44;5035321;28;20147;-75
2021/12/02 04:03:43;;;;;;;5.90;2.03;;;;;;;12.78;43.45;101427.09;5017190;28;20480;-75
2021/12/02 04:06:11;;;;;;;8.57;3.03;;;;;;;12.72;43.57;101424.78;5035266;28;20025;-76
2021/12/02 04:09:01;;;;;;;4.68;1.58;;;;;;;12.81;43.13;101417.44;5030689;28;20013;-75
2021/12/02 04:16:25;;;;;;;8.65;3.00;;;;;;;12.72;43.09;101425.59;5015650;28;20041;-75
2021/12/02 04:18:52;;;;;;;5.32;2.40;;;;;;;12.69;43.14;101433.63;5015259;28;20054;-76
2021/12/02 04:21:17;;;;;;;5.20;2.50;;;;;;;12.67;43.01;101424.91;5013949;28;20030;-75
2021/12/02 04:23:43;;;;;;;6.30;1.75;;;;;;;12.71;43.01;101434.94;5015222;28;20033;-75
2021/12/02 04:26:09;;;;;;;4.53;1.40;;;;;;;12.66;43.09;101437.00;5015114;28;20665;-75
2021/12/02 04:28:34;;;;;;;6.03;1.88;;;;;;;12.71;43.06;101437.69;5015004;28;20633;-76
2021/12/02 04:31:00;;;;;;;3.58;1.60;;;;;;;12.65;42.83;101438.13;5014907;28;20026;-75
2021/12/02 04:33:26;;;;;;;5.40;1.90;;;;;;;12.59;43.11;101453.88;5015004;28;20030;-75
2021/12/02 04:35:52;;;;;;;6.10;1.83;;;;;;;12.44;43.51;101454.22;5014985;28;20026;-75
2021/12/02 04:38:19;;;;;;;6.57;1.98;;;;;;;12.51;43.24;101457.34;5014903;28;20069;-75
2021/12/02 04:40:45;;;;;;;4.55;2.55;;;;;;;12.56;42.81;101459.97;5014823;28;20029;-75
2021/12/02 04:43:10;;;;;;;5.82;1.92;;;;;;;12.56;43.04;101446.28;5014513;28;20046;-75
2021/12/02 04:45:36;;;;;;;3.55;1.48;;;;;;;12.35;43.55;101451.41;5014791;28;20044;-75
2021/12/02 04:48:02;;;;;;;4.25;1.45;;;;;;;12.48;43.21;101457.97;5014673;28;20061;-75
2021/12/02 04:50:27;;;;;;;13.25;3.05;;;;;;;12.47;43.16;101454.44;5014661;28;20025;-75
2021/12/02 04:52:53;;;;;;;7.13;2.83;;;;;;;12.42;43.17;101456.47;5014546;28;20507;-75
2021/12/02 04:55:20;;;;;;;7.32;2.33;;;;;;;12.43;43.09;101460.81;5014641;28;20026;-79
2021/12/02 04:57:47;;;;;;;3.55;1.80;;;;;;;12.38;43.15;101466.41;5014544;28;20380;-75
2021/12/02 05:00:14;;;;;;;5.90;2.08;;;;;;;12.42;43.20;101476.44;5014464;28;20029;-75
2021/12/02 05:02:41;;;;;;;6.05;1.90;;;;;;;12.43;43.00;101480.00;5014403;28;20129;-76
2021/12/02 05:05:08;;;;;;;9.20;2.05;;;;;;;12.42;43.02;101487.41;5014567;28;20109;-75
2021/12/02 05:07:33;;;;;;;6.28;2.10;;;;;;;12.47;42.91;101501.03;5014412;28;20040;-75
2021/12/02 05:09:59;;;;;;;5.18;1.83;;;;;;;12.54;42.90;101508.81;5014302;28;20025;-75
2021/12/02 05:12:25;;;;;;;6.57;3.10;;;;;;;12.54;42.97;101516.22;5014126;28;20391;-76
2021/12/02 05:14:52;;;;;;;10.20;1.95;;;;;;;12.64;42.83;101510.53;5013562;28;20038;-75
2021/12/02 05:17:18;;;;;;;4.97;1.85;;;;;;;12.57;43.05;101516.44;5014193;28;20464;-75
2021/12/02 05:19:44;;;;;;;6.32;2.45;;;;;;;12.62;42.69;101521.81;5014088;28;20109;-75
2021/12/02 05:22:10;;;;;;;3.95;1.60;;;;;;;12.64;42.84;101516.81;5014061;28;20049;-75
2021/12/02 05:24:35;;;;;;;7.35;2.38;;;;;;;12.63;42.79;101519.88;5014035;28;20061;-75
2021/12/02 05:27:01;;;;;;;5.97;2.03;;;;;;;12.69;42.97;101533.16;5013998;28;20741;-75
2021/12/02 05:29:27;;;;;;;6.03;2.30;;;;;;;12.75;42.92;101540.16;5013954;28;20488;-75
2021/12/02 05:31:53;;;;;;;6.68;1.83;;;;;;;12.78;42.77;101541.47;5013820;28;20026;-75
2021/12/02 05:34:18;;;;;;;2.80;1.50;;;;;;;12.90;42.79;101533.50;5013946;28;20034;-80
2021/12/02 05:36:44;;;;;;;4.47;1.70;;;;;;;12.96;42.54;101542.44;5013790;28;20030;-75
2021/12/02 05:39:09;;;;;;;7.35;2.13;;;;;;;13.04;42.53;101534.28;5013850;28;20084;-76
2021/12/02 05:41:35;;;;;;;5.80;2.05;;;;;;;13.04;42.62;101538.94;5013702;28;20026;-75
2021/12/02 05:44:01;;;;;;;9.13;1.95;;;;;;;13.04;42.55;101537.03;5013587;28;20050;-75
2021/12/02 05:46:28;;;;;;;8.23;2.15;;;;;;;13.06;42.53;101543.00;5013634;28;20026;-75
2021/12/02 05:48:53;;;;;;;8.05;1.67;;;;;;;12.95;42.59;101547.13;5013647;28;20026;-75
2021/12/02 05:51:19;;;;;;;7.60;2.20;;;;;;;12.97;42.68;101544.06;5013444;28;20027;-75
2021/12/02 05:53:45;;;;;;;7.82;1.70;;;;;;;12.96;42.82;101545.19;5013566;28;20029;-76
2021/12/02 05:56:10;;;;;;;6.53;3.00;;;;;;;12.95;42.67;101546.31;5013405;28;20025;-79
2021/12/02 05:58:36;;;;;;;4.53;1.50;;;;;;;13.03;42.47;101551.88;5013438;28;20034;-75
2021/12/02 06:01:02;;;;;;;5.70;1.80;;;;;;;13.00;42.65;101547.00;5013398;28;20029;-75
2021/12/02 06:03:28;;;;;;;9.65;2.10;;;;;;;13.05;42.58;101543.31;5013351;28;20061;-75
2021/12/02 06:05:53;;;;;;;6.57;1.65;;;;;;;13.08;42.67;101534.47;5013243;28;20038;-75
2021/12/02 06:08:19;;;;;;;4.20;1.85;;;;;;;13.04;42.63;101544.44;5013204;28;20030;-77
2021/12/02 06:10:45;;;;;;;7.32;2.78;;;;;;;13.06;42.66;101542.19;5013199;28;20472;-75
2021/12/02 06:13:10;;;;;;;12.85;3.95;;;;;;;12.97;42.71;101546.81;5011902;28;20040;-75
2021/12/02 06:15:36;;;;;;;6.10;1.60;;;;;;;13.14;42.52;101554.34;5013185;28;20021;-75
2021/12/02 06:18:02;;;;;;;5.93;1.67;;;;;;;13.10;42.59;101558.88;5013075;28;20041;-75
2021/12/02 06:20:27;;;;;;;4.13;1.40;;;;;;;13.23;42.33;101567.09;5013132;28;20105;-76
2021/12/02 06:22:53;;;;;;;8.82;2.47;;;;;;;13.13;42.68;101564.53;5013022;28;20036;-75
2021/12/02 06:27:55;;;;;;;4.32;1.52;;;;;;;13.12;42.68;101584.84;5013263;28;20034;-75
2021/12/02 06:30:22;;;;;;;5.35;1.55;;;;;;;13.28;42.42;101582.59;5012944;28;20488;-75
2021/12/02 06:32:48;;;;;;;6.03;1.40;;;;;;;13.20;42.68;101578.66;5011662;28;20061;-76
2021/12/02 06:35:14;;;;;;;7.00;1.30;;;;;;;13.30;42.51;101580.38;5012910;28;20504;-75
2021/12/02 06:37:41;;;;;;;5.93;1.90;;;;;;;13.30;42.48;101574.88;5011658;28;20052;-76
2021/12/02 06:40:08;;;;;;;4.72;1.35;;;;;;;13.34;42.43;101581.38;5012921;28;20030;-75
2021/12/02 06:42:34;;;;;;;7.75;1.55;;;;;;;13.28;42.85;101577.09;5012852;28;20385;-75
2021/12/02 06:45:04;;;;;;;2.70;1.42;;;;;;;13.32;42.65;101586.34;5012669;28;20050;-75
2021/12/02 06:47:36;;;;;;;5.70;1.42;;;;;;;13.31;42.41;101596.53;5012739;28;20034;-74
2021/12/02 06:50:04;;;;;;;4.60;1.48;;;;;;;13.35;42.57;101593.16;5012747;28;20508;-74
2021/12/02 06:52:30;;;;;;;3.95;1.65;;;;;;;13.44;42.39;101594.03;5012625;28;20030;-74
2021/12/02 06:54:56;;;;;;;7.05;1.25;;;;;;;13.33;42.58;101597.03;5012671;28;20356;-74
2021/12/02 06:57:22;;;;;;;7.00;1.50;;;;;;;13.38;42.46;101598.03;5012474;28;20092;-75
2021/12/02 06:59:48;;;;;;;4.90;1.40;;;;;;;13.36;42.37;101603.00;5012692;28;20033;-74
2021/12/02 07:02:14;;;;;;;5.60;1.70;;;;;;;13.57;41.84;101593.16;5011384;28;20026;-75
2021/12/02 07:04:40;;;;;;;5.20;1.80;;;;;;;13.35;42.19;101588.47;5011400;28;20381;-75
2021/12/02 07:07:05;;;;;;;6.63;1.83;;;;;;;13.29;42.42;101596.00;5012591;28;20026;-75
2021/12/02 07:09:31;;;;;;;5.30;1.77;;;;;;;13.18;42.29;101582.81;5012423;28;20476;-74
2021/12/02 07:11:57;;;;;;;7.07;1.67;;;;;;;13.08;42.45;101583.06;5012458;28;20040;-76
2021/12/02 07:14:25;;;;;;;8.93;1.60;;;;;;;13.05;42.40;101592.69;5011191;28;20516;-75
2021/12/02 07:16:51;;;;;;;3.90;2.05;;;;;;;12.88;42.63;101590.63;5011244;28;20021;-75
2021/12/02 07:19:18;;;;;;;4.43;1.80;;;;;;;12.91;42.46;101605.63;5012500;28;20026;-79
2021/12/02 07:21:45;;;;;;;7.10;2.13;;;;;;;12.85;42.65;101595.91;5011065;28;20053;-75
2021/12/02 07:24:14;;;;;;;3.95;1.70;;;;;;;12.79;42.47;101606.19;5012504;28;20018;-75
2021/12/02 07:26:41;;;;;;;5.87;1.60;;;;;;;12.84;42.39;101610.72;5012449;28;20022;-75
2021/12/02 07:29:12;;;;;;;6.13;1.80;;;;;;;12.68;42.57;101599.25;5011699;28;20101;-75
2021/12/02 07:31:40;;;;;;;6.28;2.17;;;;;;;12.62;42.57;101604.06;5012398;28;20408;-75
2021/12/02 07:34:06;;;;;;;3.40;1.10;;;;;;;12.48;42.92;101608.72;5012324;28;20026;-75
2021/12/02 07:36:34;;;;;;;6.53;3.17;;;;;;;12.47;43.01;101604.38;5012468;28;20109;-76
2021/12/02 07:39:05;;;;;;;4.20;1.50;;;;;;;12.38;43.23;101606.19;5014081;28;20026;-78
2021/12/02 07:41:31;;;;;;;5.35;2.70;;;;;;;12.50;42.80;101595.53;5034755;28;20056;-78
2021/12/02 07:43:56;;;;;;;4.65;2.08;;;;;;;12.61;42.64;101593.38;5045352;28;20515;-75
2021/12/02 07:46:22;;;;;;;6.72;2.20;;;;;;;12.48;42.89;101595.84;5046758;28;20024;-76
2021/12/02 07:48:48;;;;;;;3.58;1.63;;;;;;;12.44;43.03;101614.00;5055592;28;20028;-81
2021/12/02 07:51:16;;;;;;;7.60;2.75;;;;;;;12.37;43.35;101613.59;5055575;28;20036;-79
2021/12/02 07:53:48;;;;;;;5.35;2.15;;;;;;;12.44;43.20;101604.97;5037489;28;20056;-74
2021/12/02 07:56:16;;;;;;;9.40;3.15;;;;;;;12.56;42.95;101608.03;5055116;28;20052;-74
2021/12/02 07:58:45;;;;;;;9.15;3.03;;;;;;;12.57;42.87;101609.66;5037406;28;20017;-74
2021/12/02 08:01:12;;;;;;;10.35;3.20;;;;;;;12.59;42.91;101610.13;5055330;28;20029;-74
2021/12/02 08:03:43;;;;;;;6.30;2.38;;;;;;;12.62;42.88;101615.03;5055233;28;20033;-77
2021/12/02 08:06:11;;;;;;;7.82;3.08;;;;;;;12.59;42.94;101618.38;5055291;28;20036;-73
2021/12/02 08:08:40;;;;;;;5.95;2.35;;;;;;;12.60;42.76;101610.94;5055148;28;20029;-74
2021/12/02 08:11:07;;;;;;;5.60;2.67;;;;;;;12.62;42.81;101608.72;5037173;28;20032;-75
2021/12/02 08:13:32;;;;;;;5.32;1.85;;;;;;;12.67;42.84;101590.22;5055070;28;20036;-74
2021/12/02 08:15:58;;;;;;;5.78;2.13;;;;;;;12.64;43.00;101596.34;5054995;28;20021;-74
2021/12/02 08:18:24;;;;;;;6.80;1.50;;;;;;;12.69;42.78;101577.00;5054949;28;20024;-75
2021/12/02 08:20:50;;;;;;;4.85;1.48;;;;;;;12.67;42.97;101573.78;5049352;28;20048;-77
2021/12/02 08:23:18;;;;;;;6.22;1.77;;;;;;;12.67;43.13;101579.25;5030396;28;20028;-77
2021/12/02 08:25:43;;;;;;;8.63;2.17;;;;;;;12.71;42.95;101577.53;5034642;28;20476;-76
2021/12/02 08:28:09;;;;;;;8.45;1.77;;;;;;;12.80;42.86;101579.56;5016785;28;20079;-75
2021/12/02 08:30:37;;;;;;;5.63;1.70;;;;;;;12.93;42.62;101581.47;5034725;28;20028;-75
2021/12/02 08:33:03;;;;;;;7.75;2.00;;;;;;;12.99;42.55;101591.19;5016898;28;20036;-75
2021/12/02 08:35:30;;;;;;;7.80;2.00;;;;;;;13.04;42.46;101594.63;5034643;28;20036;-76
2021/12/02 08:38:08;;;;;;;6.50;1.88;;;;;;;13.12;42.46;101601.31;5034544;28;20361;-75
2021/12/02 08:40:36;;;;;;;4.63;1.70;;;;;;;13.01;42.68;101606.25;5034532;28;20503;-75
2021/12/02 08:43:05;;;;;;;5.47;1.40;;;;;;;13.08;42.58;101600.34;5021840;28;20476;-76
2021/12/02 08:45:33;;;;;;;6.38;1.55;;;;;;;13.19;42.21;101609.94;5017080;28;20100;-75
2021/12/02 08:48:00;;;;;;;3.47;1.75;;;;;;;13.14;42.54;101618.28;5016644;28;20488;-76
2021/12/02 08:50:25;;;;;;;5.78;2.05;;;;;;;13.18;42.55;101616.56;5016287;28;20051;-75
2021/12/02 08:52:53;;;;;;;7.25;2.38;;;;;;;13.19;42.46;101618.19;5017691;28;20035;-75
2021/12/02 08:55:20;;;;;;;5.75;2.30;;;;;;;13.22;42.40;101614.84;5009973;28;20022;-76
2021/12/02 08:57:47;;;;;;;5.57;1.58;;;;;;;13.18;42.61;101616.56;5017882;28;20033;-75
2021/12/02 09:00:16;;;;;;;6.03;1.88;;;;;;;13.09;42.75;101623.91;5018475;28;20029;-75
2021/12/02 09:02:41;;;;;;;6.32;1.60;;;;;;;13.08;42.68;101616.78;5026517;28;20075;-75
2021/12/02 09:05:08;;;;;;;6.70;1.50;;;;;;;13.18;42.53;101621.25;5034181;28;20025;-75
2021/12/02 09:07:34;;;;;;;3.40;1.20;;;;;;;13.15;42.82;101614.44;5034014;28;20036;-75
2021/12/02 09:10:00;;;;;;;7.07;1.88;;;;;;;13.08;42.96;101626.97;5034031;28;20076;-78
2021/12/02 09:12:27;;;;;;;4.47;1.77;;;;;;;13.26;42.57;101612.28;5033854;28;20511;-75
2021/12/02 09:14:53;;;;;;;4.25;1.80;;;;;;;13.16;42.71;101616.06;5033990;28;20030;-75
2021/12/02 09:17:19;;;;;;;4.32;1.55;;;;;;;13.21;42.71;101624.19;5033792;28;20472;-75
2021/12/02 09:19:45;;;;;;;3.95;1.67;;;;;;;13.32;42.54;101620.09;5033853;28;20364;-75
2021/12/02 09:22:11;;;;;;;4.85;1.52;;;;;;;13.17;42.85;101622.38;5033830;28;20060;-75
2021/12/02 09:24:36;;;;;;;1.77;1.08;;;;;;;13.15;43.06;101633.66;5033724;28;20108;-75
2021/12/02 09:27:02;;;;;;;6.43;1.80;;;;;;;13.22;42.92;101638.72;5033379;28;20040;-75
2021/12/02 09:29:28;;;;;;;5.65;1.77;;;;;;;13.31;42.76;101642.38;5033565;28;20071;-75
2021/12/02 09:31:54;;;;;;;4.78;1.50;;;;;;;13.32;42.87;101646.75;5015721;28;20481;-75
2021/12/02 09:34:20;;;;;;;4.38;1.48;;;;;;;13.18;43.13;101651.41;5015721;28;20396;-75
2021/12/02 09:36:47;;;;;;;5.93;2.03;;;;;;;13.40;42.56;101636.97;5033202;28;20034;-75
2021/12/02 09:39:14;;;;;;;3.53;1.55;;;;;;;13.48;42.63;101636.22;5033094;28;20120;-75
2021/12/02 09:41:40;;;;;;;5.38;1.70;;;;;;;13.54;42.46;101632.25;5015674;28;20029;-76
2021/12/02 09:44:06;;;;;;;7.35;2.25;;;;;;;13.63;42.64;101635.84;5033173;28;20095;-74
2021/12/02 09:46:34;;;;;;;2.95;1.65;;;;;;;13.65;42.39;101619.06;5033206;28;20439;-75
2021/12/02 09:49:03;;;;;;;11.82;2.65;;;;;;;13.63;42.29;101622.13;5033186;28;20033;-74
2021/12/02 09:51:45;;;;;;;5.18;1.70;;;;;;;13.64;42.26;101618.25;5033070;28;20034;-75
2021/12/02 09:54:17;;;;;;;4.55;1.92;;;;;;;13.52;42.30;101626.22;5033205;28;20030;-75
2021/12/02 09:56:46;;;;;;;4.90;1.35;;;;;;;13.55;42.35;101631.09;5032734;28;20024;-75
2021/12/02 09:59:24;;;;;;;7.30;2.00;;;;;;;13.55;42.49;101633.84;5032950;28;20025;-75
2021/12/02 10:01:54;;;;;;;5.32;1.48;;;;;;;13.63;42.18;101643.28;5032807;28;20375;-74
2021/12/02 10:04:22;;;;;;;7.30;2.22;;;;;;;13.62;42.06;101656.22;5037704;28;20020;-78
2021/12/02 10:06:48;;;;;;;4.60;1.73;;;;;;;13.45;42.72;101669.78;5008219;28;20014;-78
2021/12/02 10:09:21;;;;;;;8.27;3.55;;;;;;;13.41;42.83;101677.00;5042795;28;20082;-76
2021/12/02 10:12:01;;;;;;;3.20;1.52;;;;;;;13.52;42.45;101672.91;5008055;28;20083;-76
2021/12/02 10:14:38;;;;;;;6.45;1.65;;;;;;;13.41;42.80;101666.03;5040811;28;20025;-76
2021/12/02 10:23:20;;;;;;;5.05;1.70;;;;;;;13.40;42.54;101662.47;5041861;28;20021;-75
2021/12/02 10:26:03;;;;;;;6.60;1.98;;;;;;;13.37;42.65;101654.84;5034520;28;20026;-75
2021/12/02 10:28:33;;;;;;;6.25;1.65;;;;;;;13.45;42.78;101659.63;5014990;28;20415;-78
2021/12/02 10:31:02;;;;;;;8.13;2.13;;;;;;;13.41;42.36;101657.81;5014359;28;20061;-77
2021/12/02 10:33:36;;;;;;;3.58;1.65;;;;;;;13.57;42.35;101656.31;5032435;28;20029;-75
2021/12/02 10:36:06;;;;;;;8.13;2.33;;;;;;;13.52;42.44;101659.16;5032923;28;20023;-75
2021/12/02 10:38:40;;;;;;;8.95;2.92;;;;;;;13.76;42.25;101669.88;5036757;28;20371;-74
2021/12/02 10:41:12;;;;;;;4.50;1.80;;;;;;;13.71;42.21;101668.06;5019504;28;20033;-74
2021/12/02 10:44:02;;;;;;;5.93;2.20;;;;;;;13.67;42.32;101669.78;5039441;28;20072;-79
2021/12/02 10:46:28;;;;;;;4.38;1.58;;;;;;;13.92;41.54;101668.38;5039756;28;20079;-75
2021/12/02 10:48:54;;;;;;;6.88;1.67;;;;;;;13.87;42.19;101666.56;5024389;28;20010;-78
2021/12/02 10:51:38;;;;;;;5.85;1.85;;;;;;;13.75;42.62;101671.81;5039782;28;20025;-76
2021/12/02 10:54:08;;;;;;;4.45;1.60;;;;;;;13.92;42.29;101670.31;5038478;28;20041;-76
2021/12/02 10:56:36;;;;;;;2.80;1.10;;;;;;;13.73;42.93;101660.31;5040113;28;20025;-76
2021/12/02 10:59:30;;;;;;;7.25;1.95;;;;;;;13.68;43.12;101665.13;5037934;28;20500;-75
2021/12/02 11:02:17;;;;;;;4.35;2.50;;;;;;;13.94;42.74;101659.81;5007501;28;20471;-76
2021/12/02 11:04:46;;;;;;;4.18;1.85;;;;;;;14.15;42.43;101650.75;5037095;28;20057;-76
2021/12/02 11:07:23;;;;;;;4.10;1.73;;;;;;;14.19;42.73;101650.91;5041355;28;20022;-75
2021/12/02 11:09:51;;;;;;;20.80;4.65;;;;;;;14.33;42.51;101651.63;5037619;28;20024;-80
2021/12/02 11:12:21;;;;;;;7.93;2.05;;;;;;;14.41;42.57;101648.13;5042449;28;20037;-77
2021/12/02 11:15:11;;;;;;;7.82;1.65;;;;;;;14.42;42.65;101666.22;5017374;28;20033;-73
2021/12/02 11:17:44;;;;;;;9.57;2.00;;;;;;;14.12;42.71;101658.78;5002675;28;20033;-73
2021/12/02 11:20:17;;;;;;;6.05;2.03;;;;;;;14.41;42.48;101658.31;5019388;28;20026;-73
2021/12/02 11:22:43;;;;;;;5.65;1.83;;;;;;;14.58;42.28;101654.84;5001662;28;20053;-73
2021/12/02 11:25:11;;;;;;;5.13;1.63;;;;;;;14.72;41.63;101658.28;5010928;28;20602;-72
2021/12/02 11:27:38;;;;;;;7.88;2.22;;;;;;;14.75;41.85;101648.63;5019271;28;20132;-73
2021/12/02 11:30:09;;;;;;;7.05;2.13;;;;;;;14.82;41.74;101649.78;5005797;28;20030;-73
2021/12/02 11:32:37;;;;;;;4.60;1.70;;;;;;;14.92;41.75;101643.97;5031457;28;20090;-73
2021/12/02 11:35:21;;;;;;;7.07;2.55;;;;;;;15.04;41.33;101643.34;5035785;28;20029;-73
2021/12/02 11:37:54;;;;;;;7.80;2.05;;;;;;;15.04;41.44;101637.84;5035707;28;20044;-73
2021/12/02 11:40:26;;;;;;;7.93;2.08;;;;;;;15.01;41.35;101640.41;5035658;28;20104;-73
2021/12/02 11:42:52;;;;;;;6.28;1.60;;;;;;;15.05;41.42;101635.91;5035648;28;20037;-73
2021/12/02 11:45:20;;;;;;;6.15;2.15;;;;;;;15.13;41.23;101635.09;5035505;28;20033;-73
2021/12/02 11:47:47;;;;;;;7.18;1.42;;;;;;;15.04;41.19;101631.50;5035518;28;20112;-73
2021/12/02 11:50:14;;;;;;;4.22;1.35;;;;;;;14.97;41.45;101623.75;5035598;28;20030;-77
2021/12/02 11:52:41;;;;;;;7.97;2.25;;;;;;;15.01;41.16;101624.69;5035453;28;20037;-77
2021/12/02 11:55:18;;;;;;;7.20;2.17;;;;;;;14.87;41.42;101616.59;5045057;28;20037;-73
2021/12/02 11:57:45;;;;;;;8.45;2.20;;;;;;;14.88;41.10;101615.44;5045064;28;20158;-73
2021/12/02 12:00:14;;;;;;;6.78;1.83;;;;;;;14.66;40.94;101626.56;5010618;28;20029;-73